Algiers, Indiana
Current Conditions -  °F | °C
As of 12:35 AM on Monday 24 Nov 2014 (Local Time) from KDCY Reporting Station
Overcast Overcast  
Wind Chill: 58°   Ceiling: 1000
Heat Index: 58°   Visibility: 10mi
Dew Point: 58°   Wind: 16mph
Humidity: 100%   Direction: 210°SSW
Pressure: 29.28"   Gusts: 24mph
Location:  38.4723°N, 87.3105°W
Report Text: KDCY 240635Z AUTO 21014G21KT 10SM OVC010 14/14 A2928 RMK AO2 LTG DSNT W T01420142
Loading
Personal Weather Stations






























Interactive Weather Map New forecast layout! Learn more

10-Day Weather Forecast

Advertisements
Track Severe Weather on mobile